Time;durP1;ratioP1;P1;durP2;ratioP2;P2;SDS_P1;SDS_P2;PMS_P1;PMS_P2;Temp;Humidity;BMP_temperature;BMP_pressure;BME280_temperature;BME280_humidity;BME280_pressure;Samples;Min_cycle;Max_cycle;Signal;HPM_P1;HPM_P2
2023/04/20 00:01:46;;;;;;;;;;;;;;;6.72;55.81;102417.19;5085853;28;19942;-70
2023/04/20 00:04:12;;;;;;;;;;;;;;;6.86;54.75;102415.34;5071386;28;19968;-71
2023/04/20 00:06:37;;;;;;;;;;;;;;;6.81;55.00;102419.44;5079492;28;20002;-71
2023/04/20 00:09:03;;;;;;;;;;;;;;;7.03;52.33;102405.91;5069827;28;19932;-69
2023/04/20 00:11:29;;;;;;;;;;;;;;;6.97;53.46;102401.41;5086793;28;19942;-70
2023/04/20 00:13:54;;;;;;;;;;;;;;;6.94;53.75;102410.63;5079773;28;19956;-71
2023/04/20 00:16:20;;;;;;;;;;;;;;;6.87;55.54;102417.00;5072665;28;19952;-69
2023/04/20 00:18:46;;;;;;;;;;;;;;;6.82;55.24;102407.75;5070713;28;19947;-71
2023/04/20 00:21:12;;;;;;;;;;;;;;;6.82;55.88;102417.59;5089077;28;20397;-70
2023/04/20 00:23:41;;;;;;;;;;;;;;;6.67;57.94;102404.47;5083572;28;19957;-70
2023/04/20 00:26:06;;;;;;;;;;;;;;;6.50;59.35;102413.84;5073978;28;19959;-73
2023/04/20 00:28:32;;;;;;;;;;;;;;;6.39;60.41;102417.94;5101494;28;19935;-69
2023/04/20 00:30:57;;;;;;;;;;;;;;;6.15;62.10;102419.28;5085795;28;19931;-69
2023/04/20 00:33:22;;;;;;;;;;;;;;;6.17;60.71;102413.78;5088561;28;20098;-70
2023/04/20 00:35:48;;;;;;;;;;;;;;;6.01;62.71;102415.75;5073283;28;19951;-71
2023/04/20 00:38:14;;;;;;;;;;;;;;;5.95;64.93;102415.72;5085070;28;19932;-72
2023/04/20 00:40:41;;;;;;;;;;;;;;;5.87;64.95;102402.56;5087950;28;19942;-73
2023/04/20 00:43:11;;;;;;;;;;;;;;;5.68;67.17;102410.22;5073710;28;19932;-72
2023/04/20 00:45:38;;;;;;;;;;;;;;;5.35;71.99;102403.88;5070096;28;19944;-73
2023/04/20 00:48:05;;;;;;;;;;;;;;;5.17;72.72;102402.56;5057639;28;19946;-72
2023/04/20 00:50:30;;;;;;;;;;;;;;;5.07;72.69;102396.75;5085317;28;20350;-72
2023/04/20 00:52:57;;;;;;;;;;;;;;;5.09;72.34;102391.25;5089626;28;19959;-72
2023/04/20 00:55:23;;;;;;;;;;;;;;;4.93;74.30;102373.75;5068713;28;20499;-71
2023/04/20 00:57:50;;;;;;;;;;;;;;;4.93;73.81;102381.72;5086958;28;19931;-71
2023/04/20 01:00:16;;;;;;;;;;;;;;;4.97;74.55;102384.81;5098227;28;20021;-70
2023/04/20 01:02:43;;;;;;;;;;;;;;;4.79;74.88;102387.94;5080479;28;19933;-71
2023/04/20 01:05:09;;;;;;;;;;;;;;;4.70;76.10;102367.84;5087115;28;19938;-70
2023/04/20 01:07:35;;;;;;;;;;;;;;;4.87;74.64;102371.84;5066520;28;19956;-73
2023/04/20 01:10:03;;;;;;;;;;;;;;;4.98;73.86;102381.97;5066949;28;20066;-72
2023/04/20 01:12:29;;;;;;;;;;;;;;;5.01;75.00;102384.22;5068850;28;19943;-71
2023/04/20 01:14:54;;;;;;;;;;;;;;;4.89;75.56;102378.63;5070999;28;19936;-72
2023/04/20 01:17:21;;;;;;;;;;;;;;;4.79;76.22;102366.69;5084054;28;20455;-72
2023/04/20 01:19:47;;;;;;;;;;;;;;;4.70;77.91;102362.53;5108620;28;19944;-72
2023/04/20 01:22:17;;;;;;;;;;;;;;;4.63;78.34;102363.31;5068703;28;19938;-71
2023/04/20 01:24:43;;;;;;;;;;;;;;;4.75;77.49;102370.75;5099820;28;19939;-72
2023/04/20 01:27:09;;;;;;;;;;;;;;;4.83;75.38;102367.97;5072102;28;20008;-71
2023/04/20 01:29:34;;;;;;;;;;;;;;;4.66;78.83;102368.22;5106134;28;19949;-72
2023/04/20 01:32:00;;;;;;;;;;;;;;;4.70;79.04;102362.53;5086930;28;19935;-72
2023/04/20 01:34:26;;;;;;;;;;;;;;;4.71;77.60;102359.69;5083905;28;19969;-73
2023/04/20 01:36:52;;;;;;;;;;;;;;;4.71;79.19;102358.88;5066740;28;19954;-72
2023/04/20 01:39:18;;;;;;;;;;;;;;;4.69;79.03;102363.56;5065676;28;19937;-73
2023/04/20 01:41:43;;;;;;;;;;;;;;;4.63;80.02;102352.69;5101532;28;19945;-73
2023/04/20 01:44:09;;;;;;;;;;;;;;;4.50;80.84;102347.25;5051921;28;19982;-72
2023/04/20 01:46:38;;;;;;;;;;;;;;;4.49;81.54;102350.94;5071612;28;20718;-73
2023/04/20 01:49:06;;;;;;;;;;;;;;;4.74;78.55;102346.06;5058492;27;20296;-72
2023/04/20 01:51:32;;;;;;;;;;;;;;;4.77;78.50;102340.34;5085437;28;19939;-72
2023/04/20 01:53:59;;;;;;;;;;;;;;;4.88;78.15;102344.31;5087968;28;19955;-72
2023/04/20 01:56:26;;;;;;;;;;;;;;;4.85;76.26;102340.22;5074250;28;20081;-72
2023/04/20 01:58:52;;;;;;;;;;;;;;;4.96;74.55;102325.59;5082913;28;20020;-72
2023/04/20 02:01:18;;;;;;;;;;;;;;;4.96;75.75;102320.28;5086933;28;19933;-71
2023/04/20 02:03:43;;;;;;;;;;;;;;;4.96;74.10;102327.44;5103130;28;19936;-73
2023/04/20 02:06:09;;;;;;;;;;;;;;;4.92;76.30;102324.31;5100016;27;20519;-73
2023/04/20 02:08:34;;;;;;;;;;;;;;;4.95;75.26;102326.63;5086634;28;19945;-71
2023/04/20 02:11:00;;;;;;;;;;;;;;;4.97;73.88;102319.25;5084857;28;20021;-71
2023/04/20 02:13:26;;;;;;;;;;;;;;;5.11;72.79;102315.69;5053595;28;20049;-71
2023/04/20 02:15:52;;;;;;;;;;;;;;;4.93;74.41;102312.69;5053505;28;19952;-71
2023/04/20 02:18:18;;;;;;;;;;;;;;;5.04;71.89;102295.41;5095901;27;19947;-71
2023/04/20 02:20:43;;;;;;;;;;;;;;;4.87;74.90;102293.03;5071155;28;19939;-72
2023/04/20 02:23:09;;;;;;;;;;;;;;;4.93;73.31;102288.78;5064022;28;19938;-72
2023/04/20 02:25:35;;;;;;;;;;;;;;;5.25;69.93;102282.06;5069420;28;19934;-73
2023/04/20 02:28:02;;;;;;;;;;;;;;;5.32;69.14;102280.25;5092877;28;19939;-71
2023/04/20 02:30:28;;;;;;;;;;;;;;;5.28;70.89;102288.78;5071932;28;20579;-72
2023/04/20 02:32:54;;;;;;;;;;;;;;;5.09;73.17;102299.13;5068173;28;19956;-71
2023/04/20 02:35:20;;;;;;;;;;;;;;;5.11;72.48;102296.28;5083030;28;19938;-73
2023/04/20 02:37:46;;;;;;;;;;;;;;;5.35;69.14;102281.69;5082165;28;20359;-73
2023/04/20 02:40:12;;;;;;;;;;;;;;;5.29;70.79;102278.00;5052354;28;19955;-72
2023/04/20 02:42:37;;;;;;;;;;;;;;;5.20;70.70;102287.94;5080440;28;19957;-72
2023/04/20 02:45:07;;;;;;;;;;;;;;;5.28;71.03;102288.78;5068601;28;19954;-73
2023/04/20 02:47:34;;;;;;;;;;;;;;;5.14;72.01;102275.44;5068032;28;20291;-72
2023/04/20 02:49:59;;;;;;;;;;;;;;;5.24;70.97;102291.03;5087406;28;19944;-71
2023/04/20 02:52:25;;;;;;;;;;;;;;;5.52;68.84;102284.84;5051665;28;19937;-71
2023/04/20 02:54:52;;;;;;;;;;;;;;;5.41;70.48;102287.03;5082079;28;19929;-72
2023/04/20 02:57:17;;;;;;;;;;;;;;;5.53;68.83;102279.31;5076023;28;19947;-72
2023/04/20 02:59:43;;;;;;;;;;;;;;;5.43;69.68;102285.00;5063728;28;20463;-70
2023/04/20 03:02:19;;;;;;;;;;;;;;;5.36;70.46;102283.34;5067338;28;19939;-72
2023/04/20 03:04:45;;;;;;;;;;;;;;;5.38;70.28;102286.59;5085838;28;19945;-72
2023/04/20 03:07:21;;;;;;;;;;;;;;;5.48;70.39;102281.75;5086311;28;19947;-71
2023/04/20 03:09:48;;;;;;;;;;;;;;;5.44;69.97;102286.66;5089513;28;19988;-72
2023/04/20 03:12:23;;;;;;;;;;;;;;;5.40;70.44;102285.38;5057309;28;20329;-72
2023/04/20 03:15:15;;;;;;;;;;;;;;;5.45;69.99;102285.63;5073089;28;19937;-72
2023/04/20 03:17:54;;;;;;;;;;;;;;;5.46;70.52;102289.91;5102566;27;19941;-72
2023/04/20 03:20:20;;;;;;;;;;;;;;;5.46;69.99;102291.75;5071072;28;19920;-72
2023/04/20 03:22:46;;;;;;;;;;;;;;;5.46;71.71;102283.78;5068879;28;19935;-72
2023/04/20 03:25:11;;;;;;;;;;;;;;;5.38;71.16;102273.31;5054777;28;20029;-70
2023/04/20 03:28:06;;;;;;;;;;;;;;;5.40;71.73;102268.63;5080889;28;20344;-71
2023/04/20 03:30:33;;;;;;;;;;;;;;;5.53;70.84;102284.63;5087522;28;19942;-72
2023/04/20 03:33:03;;;;;;;;;;;;;;;5.48;71.30;102285.22;5055481;28;20027;-70
2023/04/20 03:35:29;;;;;;;;;;;;;;;5.40;71.99;102280.06;5102567;28;20002;-71
2023/04/20 03:37:55;;;;;;;;;;;;;;;5.35;72.06;102284.34;5087605;28;19935;-71
2023/04/20 03:40:20;;;;;;;;;;;;;;;5.31;73.91;102291.06;5069774;28;19940;-70
2023/04/20 03:42:46;;;;;;;;;;;;;;;5.15;76.14;102293.03;5075032;28;19947;-71
2023/04/20 03:45:11;;;;;;;;;;;;;;;5.11;77.00;102290.97;5075440;28;19961;-71
2023/04/20 03:47:37;;;;;;;;;;;;;;;5.01;77.43;102296.59;5067669;28;20035;-71
2023/04/20 03:50:04;;;;;;;;;;;;;;;5.00;77.04;102297.63;5091597;28;20053;-72
2023/04/20 03:52:32;;;;;;;;;;;;;;;4.84;78.23;102287.31;5068109;28;19961;-73
2023/04/20 03:55:04;;;;;;;;;;;;;;;4.73;79.33;102293.13;5050147;28;19930;-71
2023/04/20 03:57:31;;;;;;;;;;;;;;;4.78;78.90;102280.13;5065480;28;19953;-71
2023/04/20 03:59:57;;;;;;;;;;;;;;;4.75;79.95;102285.81;5069641;28;20666;-72
2023/04/20 04:02:26;;;;;;;;;;;;;;;4.68;80.79;102282.31;5069417;28;20353;-72
2023/04/20 04:04:52;;;;;;;;;;;;;;;4.60;81.20;102285.91;5083429;28;20418;-71
2023/04/20 04:07:20;;;;;;;;;;;;;;;4.75;80.60;102283.19;5067613;28;19950;-72
2023/04/20 04:09:45;;;;;;;;;;;;;;;4.64;81.13;102280.03;5071529;28;19940;-72
2023/04/20 04:12:11;;;;;;;;;;;;;;;4.57;82.61;102279.16;5071407;28;19934;-73
2023/04/20 04:14:37;;;;;;;;;;;;;;;4.56;82.12;102282.00;5086727;28;19957;-73
2023/04/20 04:17:03;;;;;;;;;;;;;;;4.69;81.38;102284.75;5086159;28;20427;-73
2023/04/20 04:19:31;;;;;;;;;;;;;;;4.58;82.48;102283.44;5085788;28;19932;-72
2023/04/20 04:21:59;;;;;;;;;;;;;;;4.45;84.02;102285.97;5086592;28;19937;-71
2023/04/20 04:24:25;;;;;;;;;;;;;;;4.51;84.15;102281.75;5087244;28;19935;-72
2023/04/20 04:27:06;;;;;;;;;;;;;;;4.46;83.67;102290.28;5087199;28;19951;-71
2023/04/20 04:29:37;;;;;;;;;;;;;;;4.57;82.92;102305.69;5069451;28;19941;-71
2023/04/20 04:32:05;;;;;;;;;;;;;;;4.56;83.54;102304.03;5089504;28;19983;-72
2023/04/20 04:34:32;;;;;;;;;;;;;;;4.57;83.74;102304.88;5089654;28;19965;-72
2023/04/20 04:36:58;;;;;;;;;;;;;;;4.46;84.95;102292.94;5053561;28;19951;-73
2023/04/20 04:39:37;;;;;;;;;;;;;;;4.52;84.84;102292.16;5073803;28;19944;-72
2023/04/20 04:42:09;;;;;;;;;;;;;;;4.47;85.77;102297.25;5075337;28;20013;-71
2023/04/20 04:44:40;;;;;;;;;;;;;;;4.42;85.21;102283.72;5084175;28;20301;-71
2023/04/20 04:47:08;;;;;;;;;;;;;;;4.40;86.13;102299.00;5055357;28;20334;-72
2023/04/20 04:49:34;;;;;;;;;;;;;;;4.51;84.71;102306.44;5050781;28;20072;-72
2023/04/20 04:52:00;;;;;;;;;;;;;;;4.50;85.47;102301.34;5086262;28;19941;-73
2023/04/20 04:54:25;;;;;;;;;;;;;;;4.54;85.68;102300.78;5056477;28;19955;-70
2023/04/20 04:56:51;;;;;;;;;;;;;;;4.49;86.20;102300.53;5091496;28;19952;-69
2023/04/20 04:59:16;;;;;;;;;;;;;;;4.47;86.14;102305.19;5088324;28;19966;-72
2023/04/20 05:01:42;;;;;;;;;;;;;;;4.39;87.37;102300.00;5079254;28;19944;-70
2023/04/20 05:04:07;;;;;;;;;;;;;;;4.43;86.70;102298.63;5097687;28;19936;-69
2023/04/20 05:06:33;;;;;;;;;;;;;;;4.39;87.60;102289.41;5085847;28;20379;-71
2023/04/20 05:08:58;;;;;;;;;;;;;;;4.44;87.78;102289.66;5100360;28;20055;-71
2023/04/20 05:11:24;;;;;;;;;;;;;;;4.42;87.21;102293.53;5067152;28;19946;-71
2023/04/20 05:13:50;;;;;;;;;;;;;;;4.37;88.02;102297.56;5097712;28;20328;-70
2023/04/20 05:16:15;;;;;;;;;;;;;;;4.45;87.18;102301.09;5066237;28;19948;-72
2023/04/20 05:18:41;;;;;;;;;;;;;;;4.49;87.51;102302.34;5082526;28;19939;-71
2023/04/20 05:21:06;;;;;;;;;;;;;;;4.61;87.22;102306.97;5079085;28;20451;-71
2023/04/20 05:23:32;;;;;;;;;;;;;;;4.52;87.18;102313.38;5105450;28;19939;-71
2023/04/20 05:25:58;;;;;;;;;;;;;;;4.53;87.75;102314.22;5089035;28;20420;-72
2023/04/20 05:28:23;;;;;;;;;;;;;;;4.43;88.14;102309.25;5086602;28;19940;-70
2023/04/20 05:30:48;;;;;;;;;;;;;;;4.53;87.22;102307.06;5074688;28;20410;-70
2023/04/20 05:33:14;;;;;;;;;;;;;;;4.62;87.00;102311.25;5074428;28;20301;-72
2023/04/20 05:35:39;;;;;;;;;;;;;;;4.47;88.26;102305.19;5091049;28;20049;-70
2023/04/20 05:38:07;;;;;;;;;;;;;;;4.45;88.44;102312.50;5106353;28;19984;-70
2023/04/20 05:40:36;;;;;;;;;;;;;;;4.54;88.35;102311.38;5086106;28;19931;-72
2023/04/20 05:43:05;;;;;;;;;;;;;;;4.54;88.34;102300.78;5074307;28;19934;-70
2023/04/20 05:45:33;;;;;;;;;;;;;;;4.57;88.69;102311.00;5096234;28;20387;-71
2023/04/20 05:47:58;;;;;;;;;;;;;;;4.56;88.80;102314.66;5074772;28;20292;-71
2023/04/20 05:50:25;;;;;;;;;;;;;;;4.59;87.33;102319.56;5101404;28;19942;-71
2023/04/20 05:52:51;;;;;;;;;;;;;;;4.56;88.03;102322.63;5085308;28;19952;-72
2023/04/20 05:55:17;;;;;;;;;;;;;;;4.56;88.56;102319.97;5076800;28;20043;-72
2023/04/20 05:57:42;;;;;;;;;;;;;;;4.62;87.79;102321.03;5077041;28;19958;-72
2023/04/20 06:00:12;;;;;;;;;;;;;;;4.66;88.25;102320.44;5092236;28;19934;-72
2023/04/20 06:02:41;;;;;;;;;;;;;;;4.60;88.84;102328.34;5098574;28;19931;-71
2023/04/20 06:05:08;;;;;;;;;;;;;;;4.63;89.25;102320.84;5069307;28;19941;-72
2023/04/20 06:07:33;;;;;;;;;;;;;;;4.72;88.32;102324.16;5107194;28;19958;-71
2023/04/20 06:10:00;;;;;;;;;;;;;;;4.75;88.47;102321.16;5089031;28;19932;-71
2023/04/20 06:12:26;;;;;;;;;;;;;;;4.75;88.68;102320.34;5091337;28;19934;-70
2023/04/20 06:14:52;;;;;;;;;;;;;;;4.82;88.47;102305.28;5074353;28;20420;-71
2023/04/20 06:17:17;;;;;;;;;;;;;;;4.85;88.48;102304.88;5106064;28;20447;-72
2023/04/20 06:19:43;;;;;;;;;;;;;;;4.83;88.36;102309.56;5071080;28;19962;-70
2023/04/20 06:22:08;;;;;;;;;;;;;;;4.84;88.41;102316.50;5072008;28;19936;-74
2023/04/20 06:24:34;;;;;;;;;;;;;;;4.89;88.23;102308.81;5105566;28;19957;-74
2023/04/20 06:27:00;;;;;;;;;;;;;;;4.90;88.61;102319.22;5084710;27;19957;-72
2023/04/20 06:29:26;;;;;;;;;;;;;;;4.92;88.01;102303.09;5090745;28;20003;-75
2023/04/20 06:31:52;;;;;;;;;;;;;;;4.97;88.67;102305.16;5072573;28;20415;-72
2023/04/20 06:34:18;;;;;;;;;;;;;;;4.92;88.45;102309.22;5070949;28;20494;-72
2023/04/20 06:36:43;;;;;;;;;;;;;;;5.03;88.62;102307.06;5071199;28;20564;-74
2023/04/20 06:39:10;;;;;;;;;;;;;;;5.00;88.93;102300.28;5085502;28;19936;-71
2023/04/20 06:41:36;;;;;;;;;;;;;;;5.12;87.88;102298.72;5084656;28;19943;-71
2023/04/20 06:44:04;;;;;;;;;;;;;;;5.07;87.67;102311.75;5087350;28;20387;-73
2023/04/20 06:46:30;;;;;;;;;;;;;;;5.13;87.46;102305.69;5084719;28;19968;-71
2023/04/20 06:48:57;;;;;;;;;;;;;;;5.12;87.98;102317.31;5054684;28;19963;-70
2023/04/20 06:51:23;;;;;;;;;;;;;;;5.12;87.94;102314.66;5056116;28;19977;-71
2023/04/20 06:53:49;;;;;;;;;;;;;;;5.09;87.82;102315.06;5070921;28;19953;-73
2023/04/20 06:56:15;;;;;;;;;;;;;;;5.17;88.28;102324.72;5071534;28;20324;-72
2023/04/20 06:58:40;;;;;;;;;;;;;;;5.11;87.70;102313.03;5102113;28;19945;-70
2023/04/20 07:01:06;;;;;;;;;;;;;;;5.20;88.00;102327.78;5073987;28;20687;-71
2023/04/20 07:03:31;;;;;;;;;;;;;;;5.29;87.05;102315.19;5085726;28;19941;-71
2023/04/20 07:05:57;;;;;;;;;;;;;;;5.16;87.21;102320.41;5088852;28;19950;-70
2023/04/20 07:08:23;;;;;;;;;;;;;;;5.27;86.59;102311.88;5115240;27;19979;-72
2023/04/20 07:10:48;;;;;;;;;;;;;;;5.22;87.36;102324.13;5088094;28;19933;-73
2023/04/20 07:13:14;;;;;;;;;;;;;;;5.16;87.84;102326.53;5054624;28;20726;-73
2023/04/20 07:15:39;;;;;;;;;;;;;;;5.17;87.91;102332.69;5101617;28;19970;-73
2023/04/20 07:18:05;;;;;;;;;;;;;;;5.24;87.74;102324.75;5080132;28;19936;-73
2023/04/20 07:20:30;;;;;;;;;;;;;;;5.15;87.88;102335.53;5084177;28;19957;-71
2023/04/20 07:22:56;;;;;;;;;;;;;;;5.11;88.83;102338.75;5086946;28;20402;-71
2023/04/20 07:25:22;;;;;;;;;;;;;;;5.17;88.93;102332.69;5086777;28;19939;-73
2023/04/20 07:27:49;;;;;;;;;;;;;;;5.11;88.30;102328.13;5107168;28;19974;-71
2023/04/20 07:30:15;;;;;;;;;;;;;;;5.16;88.68;102337.19;5082826;28;19930;-71
2023/04/20 07:32:41;;;;;;;;;;;;;;;5.09;89.27;102338.16;5083423;28;19936;-71
2023/04/20 07:35:06;;;;;;;;;;;;;;;5.13;88.44;102336.72;5087900;28;19948;-71
2023/04/20 07:37:32;;;;;;;;;;;;;;;5.21;89.17;102341.88;5084503;28;19960;-71
2023/04/20 07:39:58;;;;;;;;;;;;;;;5.40;88.28;102333.22;5069762;28;19932;-71
2023/04/20 07:42:23;;;;;;;;;;;;;;;5.54;88.13;102339.41;5071582;28;20348;-72
2023/04/20 07:44:48;;;;;;;;;;;;;;;5.55;87.66;102341.03;5090207;27;19928;-71
2023/04/20 07:47:14;;;;;;;;;;;;;;;5.54;88.25;102344.72;5087506;28;19951;-74
2023/04/20 07:49:40;;;;;;;;;;;;;;;5.58;88.06;102350.47;5079806;28;19933;-73
2023/04/20 07:52:06;;;;;;;;;;;;;;;5.50;88.10;102348.81;5069889;28;19986;-74
2023/04/20 07:54:32;;;;;;;;;;;;;;;5.45;87.78;102351.22;5067291;28;19950;-72
2023/04/20 07:56:58;;;;;;;;;;;;;;;5.36;88.18;102355.88;5055069;28;20354;-72
2023/04/20 07:59:23;;;;;;;;;;;;;;;5.35;89.25;102356.91;5071753;28;19942;-72
2023/04/20 08:01:49;;;;;;;;;;;;;;;5.41;87.48;102361.41;5081734;28;19934;-70
2023/04/20 08:04:16;;;;;;;;;;;;;;;5.47;88.10;102363.28;5081088;28;19937;-71
2023/04/20 08:06:41;;;;;;;;;;;;;;;5.42;88.10;102367.56;5069713;28;20035;-71
2023/04/20 08:09:07;;;;;;;;;;;;;;;5.35;88.64;102356.91;5102798;28;20039;-71
2023/04/20 08:11:33;;;;;;;;;;;;;;;5.39;88.15;102362.63;5103721;28;20361;-73
2023/04/20 08:14:02;;;;;;;;;;;;;;;5.36;88.71;102371.00;5070763;28;19954;-72
2023/04/20 08:16:27;;;;;;;;;;;;;;;5.45;88.75;102364.53;5103427;28;20003;-72
2023/04/20 08:18:53;;;;;;;;;;;;;;;5.39;88.08;102367.94;5103944;28;19980;-73
2023/04/20 08:21:21;;;;;;;;;;;;;;;5.40;88.26;102369.59;5052592;28;20470;-72
2023/04/20 08:23:47;;;;;;;;;;;;;;;5.48;89.27;102382.72;5101132;28;20030;-73
2023/04/20 08:26:16;;;;;;;;;;;;;;;5.46;88.41;102390.06;5086294;28;20084;-72
2023/04/20 08:28:43;;;;;;;;;;;;;;;5.53;88.01;102388.28;5066135;28;19984;-74
2023/04/20 08:31:09;;;;;;;;;;;;;;;5.47;87.19;102383.72;5065659;28;19934;-71
2023/04/20 08:33:35;;;;;;;;;;;;;;;5.43;88.87;102379.84;5066083;28;20421;-70
2023/04/20 08:36:00;;;;;;;;;;;;;;;5.48;89.11;102372.09;5071035;28;19950;-70
2023/04/20 08:38:26;;;;;;;;;;;;;;;5.57;87.54;102368.28;5054172;28;19963;-72
2023/04/20 08:40:52;;;;;;;;;;;;;;;5.67;88.10;102366.06;5089047;28;19937;-73
2023/04/20 08:43:17;;;;;;;;;;;;;;;5.85;88.05;102370.03;5084252;28;19985;-71
2023/04/20 08:45:47;;;;;;;;;;;;;;;5.97;87.81;102365.81;5072053;28;19935;-74
2023/04/20 08:48:16;;;;;;;;;;;;;;;6.06;88.25;102375.25;5054549;28;19932;-74
2023/04/20 08:50:41;;;;;;;;;;;;;;;6.22;87.58;102366.91;5099090;28;19977;-74
2023/04/20 08:53:08;;;;;;;;;;;;;;;6.35;87.21;102362.63;5082088;28;19981;-74
2023/04/20 08:55:34;;;;;;;;;;;;;;;6.38;85.87;102367.56;5078902;28;19936;-73
2023/04/20 08:58:00;;;;;;;;;;;;;;;6.54;85.27;102368.00;5103072;28;20316;-73
2023/04/20 09:00:29;;;;;;;;;;;;;;;6.58;85.70;102371.09;5070700;28;20328;-71
2023/04/20 09:02:54;;;;;;;;;;;;;;;6.61;85.90;102372.50;5086800;28;20305;-74
2023/04/20 09:05:25;;;;;;;;;;;;;;;6.50;84.96;102372.09;5053151;28;19946;-71
2023/04/20 09:07:54;;;;;;;;;;;;;;;6.65;86.01;102369.25;5072216;28;19958;-72
2023/04/20 09:10:20;;;;;;;;;;;;;;;6.61;85.11;102373.34;5067677;28;20708;-71
2023/04/20 09:12:45;;;;;;;;;;;;;;;6.60;84.15;102371.69;5072310;28;19939;-73
2023/04/20 09:15:22;;;;;;;;;;;;;;;6.69;84.67;102370.47;5071602;28;19939;-73
2023/04/20 09:17:48;;;;;;;;;;;;;;;6.71;85.06;102371.09;5100194;28;19956;-73
2023/04/20 09:20:13;;;;;;;;;;;;;;;6.85;84.65;102390.56;5051563;28;19942;-74
2023/04/20 09:22:39;;;;;;;;;;;;;;;6.72;84.50;102387.91;5068322;28;19945;-71
2023/04/20 09:25:17;;;;;;;;;;;;;;;6.71;85.07;102387.06;5079154;28;19936;-72
2023/04/20 09:27:53;;;;;;;;;;;;;;;6.68;85.51;102379.47;5098655;28;19946;-73
2023/04/20 09:30:19;;;;;;;;;;;;;;;6.63;85.83;102405.06;5081592;28;20035;-71
2023/04/20 09:32:45;;;;;;;;;;;;;;;6.54;85.04;102389.28;5088699;28;20100;-73
2023/04/20 09:35:11;;;;;;;;;;;;;;;6.54;84.99;102393.81;5079575;28;19933;-72
2023/04/20 09:37:45;;;;;;;;;;;;;;;6.61;85.18;102389.31;5050502;28;19959;-71
2023/04/20 09:40:13;;;;;;;;;;;;;;;6.74;84.52;102391.97;5096796;28;20486;-71
2023/04/20 09:42:38;;;;;;;;;;;;;;;6.97;83.99;102382.75;5098169;28;19999;-72
2023/04/20 09:45:04;;;;;;;;;;;;;;;7.52;84.19;102372.63;5099884;28;20389;-73
2023/04/20 09:47:33;;;;;;;;;;;;;;;7.59;83.38;102371.63;5098853;28;20509;-74
2023/04/20 09:49:59;;;;;;;;;;;;;;;8.77;81.60;102379.22;5094635;28;19930;-72
2023/04/20 09:52:25;;;;;;;;;;;;;;;9.40;80.82;102381.72;5070104;28;19960;-72
2023/04/20 09:54:53;;;;;;;;;;;;;;;8.95;78.79;102370.44;5087085;28;19951;-72
2023/04/20 09:57:19;;;;;;;;;;;;;;;8.96;78.96;102367.56;5071676;28;20026;-72
2023/04/20 09:59:45;;;;;;;;;;;;;;;9.18;78.27;102372.50;5068752;28;19940;-72
2023/04/20 10:02:12;;;;;;;;;;;;;;;9.17;78.00;102389.56;5096340;28;19973;-74
2023/04/20 10:04:37;;;;;;;;;;;;;;;8.62;78.48;102392.06;5085635;28;19939;-74
2023/04/20 10:07:05;;;;;;;;;;;;;;;8.03;79.14;102398.53;5053403;28;19949;-71
2023/04/20 10:09:32;;;;;;;;;;;;;;;8.01;79.61;102395.25;5087997;28;20019;-71
2023/04/20 10:12:07;;;;;;;;;;;;;;;7.89;79.67;102395.91;5070505;28;20067;-72
2023/04/20 10:14:34;;;;;;;;;;;;;;;7.98;78.99;102395.66;5072060;28;20459;-72
2023/04/20 10:17:03;;;;;;;;;;;;;;;8.10;79.66;102393.97;5084129;28;20083;-71
2023/04/20 10:19:44;;;;;;;;;;;;;;;8.09;80.16;102393.16;5083712;28;19940;-72
2023/04/20 10:22:11;;;;;;;;;;;;;;;8.03;79.17;102395.84;5085512;28;19981;-72
2023/04/20 10:24:37;;;;;;;;;;;;;;;8.23;79.43;102398.44;5090051;28;19932;-72
2023/04/20 10:27:03;;;;;;;;;;;;;;;8.20;80.05;102397.03;5070632;28;19949;-73
2023/04/20 10:29:30;;;;;;;;;;;;;;;8.71;78.38;102396.09;5108173;28;19941;-74
2023/04/20 10:31:55;;;;;;;;;;;;;;;8.84;77.17;102390.66;5067495;28;20435;-72
2023/04/20 10:34:34;;;;;;;;;;;;;;;8.48;78.85;102389.50;5081011;28;20054;-72
2023/04/20 10:37:11;;;;;;;;;;;;;;;9.02;77.77;102387.25;5086618;28;20583;-72
2023/04/20 10:39:46;;;;;;;;;;;;;;;8.72;77.71;102387.06;5065881;28;19941;-73
2023/04/20 10:42:12;;;;;;;;;;;;;;;9.11;77.53;102385.09;5099358;28;20161;-73
2023/04/20 10:44:50;;;;;;;;;;;;;;;9.10;76.92;102384.28;5068409;28;20559;-74
2023/04/20 10:47:17;;;;;;;;;;;;;;;9.21;76.17;102377.38;5072276;28;19958;-72
2023/04/20 10:49:45;;;;;;;;;;;;;;;9.40;75.46;102381.72;5088191;28;20030;-71
2023/04/20 10:52:11;;;;;;;;;;;;;;;9.79;75.68;102374.31;5108310;28;20026;-72
2023/04/20 10:54:38;;;;;;;;;;;;;;;9.72;73.53;102378.91;5092907;28;19954;-73
2023/04/20 10:57:04;;;;;;;;;;;;;;;9.15;74.37;102379.09;5078367;28;20012;-71
2023/04/20 10:59:30;;;;;;;;;;;;;;;8.74;77.26;102382.34;5087637;28;20038;-70
2023/04/20 11:01:55;;;;;;;;;;;;;;;8.93;77.52;102377.84;5075072;28;19978;-71
2023/04/20 11:04:31;;;;;;;;;;;;;;;9.15;77.48;102376.44;5091196;28;19935;-73
2023/04/20 11:07:03;;;;;;;;;;;;;;;8.68;77.28;102380.53;5059226;28;19957;-70
2023/04/20 11:09:29;;;;;;;;;;;;;;;8.75;77.84;102375.94;5079465;28;20703;-72
2023/04/20 11:11:58;;;;;;;;;;;;;;;8.56;77.38;102376.91;5094969;28;19932;-71
2023/04/20 11:14:24;;;;;;;;;;;;;;;8.87;77.36;102374.19;5074776;28;19954;-73
2023/04/20 11:16:50;;;;;;;;;;;;;;;8.56;78.66;102376.91;5076411;28;20040;-71
2023/04/20 11:19:21;;;;;;;;;;;;;;;8.62;77.79;102376.06;5092307;28;20323;-72
2023/04/20 11:21:46;;;;;;;;;;;;;;;8.46;79.46;102378.19;5103266;28;19930;-72
2023/04/20 11:24:23;;;;;;;;;;;;;;;8.76;78.62;102369.56;5074836;28;19940;-73
2023/04/20 11:26:56;;;;;;;;;;;;;;;8.56;79.13;102374.25;5106630;28;19943;-71
2023/04/20 11:29:40;;;;;;;;;;;;;;;8.71;78.91;102372.88;5109035;28;19932;-72
2023/04/20 11:32:08;;;;;;;;;;;;;;;8.56;78.09;102382.25;5074357;28;19946;-72
2023/04/20 11:34:37;;;;;;;;;;;;;;;8.63;77.52;102385.69;5073764;28;20205;-71
2023/04/20 11:37:05;;;;;;;;;;;;;;;8.40;78.79;102380.91;5105231;28;19950;-74
2023/04/20 11:39:32;;;;;;;;;;;;;;;8.24;79.45;102378.72;5069161;28;19958;-73
2023/04/20 11:41:58;;;;;;;;;;;;;;;8.05;79.11;102385.78;5073318;28;19951;-71
2023/04/20 11:44:24;;;;;;;;;;;;;;;8.10;79.87;102380.63;5090427;28;19944;-71
2023/04/20 11:46:52;;;;;;;;;;;;;;;8.04;79.37;102378.81;5061541;28;20501;-73
2023/04/20 11:49:18;;;;;;;;;;;;;;;7.90;80.73;102370.88;5110605;28;20709;-71
2023/04/20 11:51:45;;;;;;;;;;;;;;;7.90;80.66;102384.22;5079766;28;19943;-71
2023/04/20 11:54:11;;;;;;;;;;;;;;;7.89;80.99;102371.91;5090954;28;19992;-75
2023/04/20 11:56:37;;;;;;;;;;;;;;;8.02;80.57;102375.56;5097003;28;19962;-73
2023/04/20 11:59:03;;;;;;;;;;;;;;;8.14;79.72;102379.19;5097015;28;19938;-71
2023/04/20 12:01:31;;;;;;;;;;;;;;;7.95;80.19;102367.56;5084941;28;19935;-70
2023/04/20 12:04:02;;;;;;;;;;;;;;;7.80;81.67;102381.19;5107286;28;19969;-71
2023/04/20 12:06:28;;;;;;;;;;;;;;;7.73;82.01;102383.06;5073420;28;19956;-71
2023/04/20 12:08:56;;;;;;;;;;;;;;;7.80;82.23;102391.84;5086220;28;19947;-72
2023/04/20 12:11:22;;;;;;;;;;;;;;;7.76;82.42;102389.81;5086338;28;19930;-70
2023/04/20 12:13:48;;;;;;;;;;;;;;;7.76;83.38;102387.97;5085643;28;19966;-74
2023/04/20 12:16:14;;;;;;;;;;;;;;;7.83;83.52;102388.75;5084672;28;19955;-71
2023/04/20 12:18:40;;;;;;;;;;;;;;;7.85;83.33;102392.00;5103203;28;19957;-73
2023/04/20 12:21:05;;;;;;;;;;;;;;;7.75;83.45;102394.31;5068998;28;20304;-73
2023/04/20 12:23:31;;;;;;;;;;;;;;;7.69;83.89;102397.00;5099072;28;19939;-73
2023/04/20 12:25:57;;;;;;;;;;;;;;;7.69;84.72;102387.16;5077068;28;20018;-73
2023/04/20 12:28:23;;;;;;;;;;;;;;;7.63;84.44;102393.31;5069316;28;20328;-71
2023/04/20 12:30:48;;;;;;;;;;;;;;;7.64;85.41;102405.63;5083492;28;19960;-73
2023/04/20 12:33:14;;;;;;;;;;;;;;;7.55;84.96;102397.03;5070960;28;20034;-72
2023/04/20 12:35:40;;;;;;;;;;;;;;;7.57;85.22;102399.50;5090857;28;20028;-71
2023/04/20 12:38:06;;;;;;;;;;;;;;;7.64;85.52;102400.28;5099651;28;19992;-72
2023/04/20 12:40:31;;;;;;;;;;;;;;;7.66;86.42;102403.59;5070459;28;20339;-73
2023/04/20 12:42:57;;;;;;;;;;;;;;;7.87;85.97;102399.84;5068197;28;19940;-72
2023/04/20 12:45:22;;;;;;;;;;;;;;;8.11;84.15;102384.94;5071957;28;20038;-73
2023/04/20 12:47:48;;;;;;;;;;;;;;;8.36;84.42;102377.84;5096602;28;19951;-73